createdAt,value
2019-03-19T00:03:19.856Z,0.60
2019-03-19T00:08:25.708Z,0.80
2019-03-19T00:13:31.791Z,0.70
2019-03-19T00:18:37.830Z,0.80
2019-03-19T00:23:43.562Z,0.60
2019-03-19T00:28:49.365Z,0.75
2019-03-19T00:33:55.058Z,0.70
2019-03-19T00:39:00.920Z,0.60
2019-03-19T00:44:07.061Z,0.80
2019-03-19T00:49:13.411Z,0.80
2019-03-19T00:54:20.212Z,0.70
2019-03-19T00:59:25.881Z,0.68
2019-03-19T01:04:31.921Z,0.75
2019-03-19T01:09:38.131Z,0.75
2019-03-19T01:14:43.877Z,0.55
2019-03-19T01:19:49.952Z,0.70
2019-03-19T01:24:56.240Z,0.60
2019-03-19T01:30:01.810Z,0.55
2019-03-19T01:35:08.227Z,0.80
2019-03-19T01:40:14.802Z,0.68
2019-03-19T01:45:21.470Z,0.80
2019-03-19T01:50:27.240Z,0.60
2019-03-19T01:55:32.960Z,0.60
2019-03-19T02:00:39.201Z,0.75
2019-03-19T02:05:45.180Z,0.60
2019-03-19T02:10:51.109Z,0.55
2019-03-19T02:15:56.764Z,0.80
2019-03-19T02:21:02.941Z,0.45
2019-03-19T02:26:16.397Z,0.80
2019-03-19T02:31:16.469Z,0.60
2019-03-19T02:36:22.802Z,0.68
2019-03-19T02:41:28.347Z,0.90
2019-03-19T02:46:34.189Z,0.50
2019-03-19T02:51:39.651Z,0.60
2019-03-19T02:56:46.011Z,0.62
2019-03-19T03:01:51.995Z,0.70
2019-03-19T03:06:57.904Z,0.90
2019-03-19T03:12:04.852Z,0.70
2019-03-19T03:17:10.723Z,0.70
2019-03-19T03:22:16.457Z,0.70
2019-03-19T03:27:22.516Z,0.60
2019-03-19T03:32:28.313Z,0.80
2019-03-19T03:37:33.873Z,0.95
2019-03-19T03:42:58.535Z,0.60
2019-03-19T03:48:04.605Z,0.60
2019-03-19T03:53:10.423Z,0.60
2019-03-19T03:58:16.814Z,0.98
2019-03-19T04:03:22.665Z,0.60
2019-03-19T04:08:28.762Z,0.62
2019-03-19T04:13:34.421Z,0.80
2019-03-19T04:18:40.367Z,0.50
2019-03-19T04:23:46.207Z,0.60
2019-03-19T04:28:53.847Z,0.70
2019-03-19T04:33:59.100Z,0.70
2019-03-19T04:39:05.251Z,0.80
2019-03-19T04:44:11.002Z,0.70
2019-03-19T04:49:16.943Z,0.80
2019-03-19T04:54:22.161Z,0.57
2019-03-19T04:59:27.834Z,0.60
2019-03-19T05:04:33.602Z,0.70
2019-03-19T05:09:39.243Z,0.70
2019-03-19T05:14:44.825Z,0.60
2019-03-19T05:19:50.543Z,0.50
2019-03-19T05:24:56.331Z,0.60
2019-03-19T05:30:02.136Z,0.60
2019-03-19T05:35:08.773Z,0.62
2019-03-19T05:40:15.257Z,0.70
2019-03-19T05:45:21.251Z,0.72
2019-03-19T05:50:27.183Z,0.60
2019-03-19T05:55:32.832Z,0.72
2019-03-19T06:00:39.113Z,0.50
2019-03-19T06:05:44.904Z,0.70
2019-03-19T06:10:50.583Z,0.75
2019-03-19T06:15:56.383Z,0.60
2019-03-19T06:21:02.262Z,0.68
2019-03-19T06:26:07.934Z,0.60
2019-03-19T06:31:13.614Z,0.80
2019-03-19T06:36:19.252Z,0.60
2019-03-19T06:41:25.052Z,0.70
2019-03-19T06:46:30.984Z,0.60
2019-03-19T06:51:36.723Z,0.62
2019-03-19T06:56:42.552Z,0.72
2019-03-19T07:01:48.725Z,0.65
2019-03-19T07:06:54.764Z,0.68
2019-03-19T07:12:01.594Z,0.80
2019-03-19T07:17:07.383Z,0.82
2019-03-19T07:22:13.172Z,1.10
2019-03-19T07:27:19.354Z,1.30
2019-03-19T07:32:25.192Z,0.70
2019-03-19T07:37:30.933Z,1.05
2019-03-19T07:42:37.323Z,1.00
2019-03-19T07:47:43.372Z,0.90
2019-03-19T07:52:49.143Z,1.30
2019-03-19T07:57:54.932Z,0.90
2019-03-19T08:03:00.703Z,1.40
2019-03-19T08:08:06.403Z,1.42
2019-03-19T08:13:12.243Z,1.05
2019-03-19T08:18:17.943Z,1.05
2019-03-19T08:23:23.593Z,1.35
2019-03-19T08:28:29.342Z,1.12
2019-03-19T08:33:35.242Z,1.00
2019-03-19T08:38:41.413Z,0.85
2019-03-19T08:43:47.213Z,0.80
2019-03-19T08:48:53.752Z,0.98
2019-03-19T08:53:59.592Z,1.00
2019-03-19T08:59:06.098Z,0.72
2019-03-19T09:04:12.122Z,1.10
2019-03-19T09:09:17.943Z,0.93
2019-03-19T09:14:23.663Z,0.78
2019-03-19T09:19:28.913Z,0.93
2019-03-19T09:24:34.654Z,0.82
2019-03-19T09:29:40.464Z,0.95
2019-03-19T09:34:46.124Z,0.80
2019-03-19T09:39:52.073Z,0.90
2019-03-19T09:44:58.665Z,0.70
2019-03-19T09:50:04.893Z,2.22
2019-03-19T09:55:10.943Z,2.83
2019-03-19T10:00:18.371Z,3.12
2019-03-19T10:05:24.192Z,2.15
2019-03-19T10:10:29.976Z,2.08
2019-03-19T10:15:35.853Z,1.55
2019-03-19T10:20:41.514Z,1.17
2019-03-19T10:25:47.083Z,1.80
2019-03-19T10:30:53.243Z,1.50
2019-03-19T10:35:59.294Z,2.15
2019-03-19T10:41:06.024Z,1.32
2019-03-19T10:46:14.957Z,1.20
2019-03-19T10:51:20.937Z,1.15
2019-03-19T10:56:27.132Z,1.27
2019-03-19T11:01:32.823Z,1.00
2019-03-19T11:06:38.952Z,1.30
2019-03-19T11:11:45.045Z,1.57
2019-03-19T11:16:51.173Z,3.87
2019-03-19T11:21:57.163Z,1.80
2019-03-19T11:27:03.274Z,1.67
2019-03-19T11:32:09.262Z,1.62
2019-03-19T11:37:14.963Z,1.40
2019-03-19T11:42:20.683Z,1.30
2019-03-19T11:47:26.575Z,2.20
2019-03-19T11:52:32.472Z,4.33
2019-03-19T11:57:38.303Z,3.00
2019-03-19T12:02:44.053Z,2.45
2019-03-19T12:07:49.843Z,2.20
2019-03-19T12:12:55.505Z,1.90
2019-03-19T12:18:01.345Z,1.67
2019-03-19T12:23:07.192Z,1.80
2019-03-19T12:28:12.833Z,1.87
2019-03-19T12:33:18.623Z,1.80
2019-03-19T12:38:24.816Z,1.90
2019-03-19T12:43:30.654Z,1.70
2019-03-19T12:48:36.373Z,1.70
2019-03-19T12:53:41.996Z,1.80
2019-03-19T12:58:48.223Z,2.20
2019-03-19T13:03:54.012Z,1.67
2019-03-19T13:08:59.152Z,1.45
2019-03-19T13:14:05.135Z,1.52
2019-03-19T13:19:11.006Z,1.82
2019-03-19T13:24:17.389Z,1.77
2019-03-19T13:29:23.591Z,1.62
2019-03-19T13:34:29.262Z,1.85
2019-03-19T13:39:35.056Z,1.95
2019-03-19T13:44:40.825Z,2.17
2019-03-19T13:49:46.757Z,1.95
2019-03-19T13:54:52.603Z,1.87
2019-03-19T13:59:58.523Z,1.75
2019-03-19T14:05:04.263Z,2.00
2019-03-19T14:10:11.113Z,1.47
2019-03-19T14:15:17.287Z,1.60
2019-03-19T14:20:23.042Z,1.55
2019-03-19T14:25:28.985Z,1.37
2019-03-19T14:30:34.901Z,1.55
2019-03-19T14:35:40.842Z,1.52
2019-03-19T14:40:46.673Z,1.57
2019-03-19T14:45:52.591Z,1.40
2019-03-19T14:50:58.563Z,1.30
2019-03-19T14:56:04.524Z,1.60
2019-03-19T15:01:18.930Z,1.42
2019-03-19T15:06:17.883Z,1.52
2019-03-19T15:11:23.662Z,1.35
2019-03-19T15:16:29.573Z,1.55
2019-03-19T15:21:35.832Z,1.60
2019-03-19T15:26:41.882Z,1.30
2019-03-19T15:31:48.242Z,1.25
2019-03-19T15:36:54.214Z,1.47
2019-03-19T15:41:59.834Z,1.10
2019-03-19T15:47:05.996Z,1.42
2019-03-19T15:52:12.021Z,1.22
2019-03-19T15:57:17.757Z,1.52
2019-03-19T16:02:23.955Z,1.42
2019-03-19T16:07:30.313Z,1.20
2019-03-19T16:12:36.174Z,1.30
2019-03-19T16:17:42.003Z,1.40
2019-03-19T16:22:47.963Z,1.10
2019-03-19T16:27:53.762Z,1.20
2019-03-19T16:32:59.663Z,1.30
2019-03-19T16:38:05.493Z,1.30
2019-03-19T16:43:11.382Z,1.37
2019-03-19T16:48:17.243Z,1.12
2019-03-19T16:53:23.113Z,1.17
2019-03-19T16:58:28.832Z,1.40
2019-03-19T17:03:34.663Z,1.87
2019-03-19T17:08:40.594Z,2.30
2019-03-19T17:13:46.473Z,2.00
2019-03-19T17:18:52.471Z,2.10
2019-03-19T17:23:58.353Z,2.35
2019-03-19T17:29:04.333Z,1.60
2019-03-19T17:34:10.173Z,2.00
2019-03-19T17:39:15.986Z,1.52
2019-03-19T17:44:21.814Z,1.80
2019-03-19T17:49:27.672Z,1.70
2019-03-19T17:54:33.593Z,1.95
2019-03-19T17:59:39.693Z,1.75
2019-03-19T18:04:45.626Z,1.60
2019-03-19T18:09:51.504Z,1.62
2019-03-19T18:14:57.473Z,1.40
2019-03-19T18:20:03.353Z,1.52
2019-03-19T18:25:09.622Z,1.50
2019-03-19T18:30:15.868Z,1.87
2019-03-19T18:35:21.764Z,1.67
2019-03-19T18:40:27.654Z,1.62
2019-03-19T18:45:33.482Z,1.62
2019-03-19T18:50:39.433Z,1.50
2019-03-19T18:55:45.452Z,1.50
2019-03-19T19:00:53.013Z,1.50
2019-03-19T19:05:59.062Z,1.50
2019-03-19T19:11:05.014Z,1.57
2019-03-19T19:16:11.083Z,1.85
2019-03-19T19:21:17.032Z,1.85
2019-03-19T19:26:23.092Z,1.47
2019-03-19T19:31:28.883Z,1.50
2019-03-19T19:36:34.791Z,1.67
2019-03-19T19:41:40.785Z,2.35
2019-03-19T19:46:46.923Z,1.45
2019-03-19T19:51:53.112Z,1.57
2019-03-19T19:56:58.843Z,1.20
2019-03-19T20:02:05.393Z,1.92
2019-03-19T20:07:11.713Z,1.42
2019-03-19T20:12:19.264Z,1.75
2019-03-19T20:17:35.967Z,1.70
2019-03-19T20:22:44.697Z,1.50
2019-03-19T20:27:50.003Z,1.50
2019-03-19T20:32:55.946Z,1.72
2019-03-19T20:38:01.952Z,1.50
2019-03-19T20:43:07.742Z,1.70
2019-03-19T20:48:13.816Z,1.47
2019-03-19T20:53:19.895Z,1.45
2019-03-19T20:58:25.773Z,1.60
2019-03-19T21:03:35.795Z,1.62
2019-03-19T21:08:39.174Z,1.60
2019-03-19T21:13:45.013Z,1.67
2019-03-19T21:18:50.893Z,1.95
2019-03-19T21:23:56.895Z,1.40
2019-03-19T21:29:02.694Z,1.60
2019-03-19T21:34:08.713Z,1.70
2019-03-19T21:39:14.533Z,1.32
2019-03-19T21:44:20.373Z,1.80
2019-03-19T21:49:26.284Z,1.75
2019-03-19T21:54:32.163Z,1.55
2019-03-19T21:59:38.133Z,1.45
2019-03-19T22:04:44.327Z,1.45
2019-03-19T22:09:51.113Z,1.70
2019-03-19T22:14:57.252Z,1.72
2019-03-19T22:20:04.083Z,1.70
2019-03-19T22:25:11.263Z,1.80
2019-03-19T22:30:17.912Z,1.67
2019-03-19T22:35:24.614Z,1.45
2019-03-19T22:40:30.975Z,1.65
2019-03-19T22:45:37.099Z,1.77
2019-03-19T22:50:42.863Z,1.27
2019-03-19T22:55:48.728Z,1.50
2019-03-19T23:00:57.648Z,1.60
2019-03-19T23:06:02.793Z,1.87
2019-03-19T23:11:08.782Z,1.50
2019-03-19T23:16:14.493Z,1.40
2019-03-19T23:21:20.363Z,1.50
2019-03-19T23:26:26.375Z,1.57
2019-03-19T23:31:32.103Z,1.40
2019-03-19T23:36:37.781Z,1.40
2019-03-19T23:41:43.633Z,1.82
2019-03-19T23:46:49.435Z,1.50
2019-03-19T23:51:55.225Z,1.60
2019-03-19T23:57:01.110Z,1.35
